Latest Coastal Weather Observations for Cape Willoughby

IDS60701

Issued at 6:45 am CDT Wednesday 22 October 2014 (issued every 10 minutes, with the page automatically refreshed every 10 minutes)

About coastal observations | Map of coastal stations | Coastal observations for SA | Marine services | Other Formats
Station Details ID: 022803 Name: CAPE WILLOUGHBY Lat: -35.84 Lon: 138.13 Height: 55.0 m
Data from the previous 72 hours. | See also: Recent months at Cape Willoughby
Date/Time
CDT
Temp

°C
Wind Pressure Rain
since 9am
mm
Weather Cloud Vis
km
Sea
Height
m
Swell
Dir
 
Speed
knots
Gust
knots
hPa Trend Height
m
Period
s
Dir
22/06:30am 16.7 SW 19 22 1016.5 - 0.0 - - - - - - -
22/06:00am 17.0 SW 18 21 1016.2 - 0.0 - - - - - - -
22/05:30am 17.2 SW 17 20 1016.2 - 0.0 - - - - - - -
22/05:00am 17.5 SW 15 18 1016.1 - 0.0 - - - - - - -
22/04:30am 18.9 SW 7 11 1016.1 - 0.0 - - - - - - -
22/04:00am 19.1 NE 4 7 1015.9 - 0.0 - - - - - - -
22/03:30am 18.9 WSW 13 16 1015.9 - 0.0 - - - - - - -
22/03:00am 17.5 N 11 13 1015.8 - 0.0 - - - - - - -
22/02:30am 17.9 N 6 7 1015.9 - 0.0 - - - - - - -
22/02:00am 20.8 S 7 9 1015.5 - 0.0 - - - - - - -
22/01:30am 20.1 SSE 6 8 1016.3 - 0.0 - - - - - - -
22/01:00am 21.1 SSW 13 17 1017.0 - 0.0 - - - - - - -
22/12:30am 19.9 SW 12 15 1017.7 - 0.0 - - - - - - -
22/12:00am 19.6 SW 19 24 1017.7 - 0.0 - - - - - - -
 
Date/Time
CDT
Temp

°C
Wind Pressure Rain
since 9am
mm
Weather Cloud Vis
km
Sea
Height
m
Swell
Dir
 
Speed
knots
Gust
knots
hPa Trend Height
m
Period
s
Dir
21/11:30pm 18.9 SW 18 22 1017.3 - 0.0 - - - - - - -
21/11:00pm 19.9 SW 16 18 1017.9 - 0.0 - - - - - - -
21/10:38pm 23.3 SW 23 28 1017.8 - 0.0 - - - - - - -
21/10:30pm 27.2 WSW 11 14 1017.7 - 0.0 - - - - - - -
21/10:00pm 28.3 N 7 9 1017.4 - 0.0 - - - - - - -
21/09:30pm 27.8 NNE 6 9 1017.1 - 0.0 - - - - - - -
21/09:00pm 26.9 NNE 6 8 1017.2 - 0.0 - - - - - - -
21/08:30pm 25.5 N 6 8 1016.7 - 0.0 - - - - - - -
21/08:00pm 26.6 N 1 4 1016.5 - 0.0 - - - - - - -
21/07:30pm 25.8 N 4 4 1016.4 - 0.0 - - - - - - -
21/07:00pm 24.8 N 5 7 1016.4 - 0.0 - - - - - - -
21/06:30pm 26.8 N 4 5 1016.4 - 0.0 - - - - - - -
21/06:00pm 27.4 NNE 2 3 1016.3 - 0.0 - - - - - - -
21/05:30pm 27.0 NNE 2 3 1016.6 - 0.0 - - - - - - -
21/05:00pm 27.4 NNE 2 4 1016.6 - 0.0 - - - - - - -
21/04:30pm 26.4 NNE 4 5 1016.6 - 0.0 - - - - - - -
21/04:00pm 24.2 NE 5 6 1016.7 - 0.0 - - - - - - -
21/03:30pm 24.6 N 3 4 1017.1 - 0.0 - - - - - - -
21/03:00pm 23.3 NNE 4 5 1017.3 - 0.0 - - - - - - -
21/02:30pm 23.9 NNE 4 7 1017.8 - 0.0 - - - - - - -
21/02:00pm 23.4 NNE 5 6 1018.3 - 0.0 - - - - - - -
21/01:30pm 23.2 NNE 5 7 1018.6 - 0.0 - - - - - - -
21/01:00pm 21.6 NNE 6 10 1018.9 - 0.0 - - - - - - -
21/12:30pm 19.9 N 6 9 1019.2 - 0.0 - - - - - - -
21/12:00pm 19.6 NNE 6 12 1019.7 - 0.0 - - - - - - -
21/11:30am 18.9 NE 8 12 1019.9 - 0.0 - - - - - - -
21/11:00am 19.0 NNE 6 9 1020.1 - 0.0 - - - - - - -
21/10:30am 18.8 N 6 9 1020.3 - 0.0 - - - - - - -
21/10:00am 18.9 NE 11 16 1020.5 - 0.0 - - - - - - -
21/09:30am 18.1 ENE 11 15 1020.3 - 0.0 - - - - - - -
21/09:00am 18.1 ENE 16 21 1020.1 - 0.0 - - - - - - -
21/08:30am 17.8 ENE 18 22 1020.0 - 0.0 - - - - - - -
21/08:00am 17.8 ENE 18 21 1019.8 - 0.0 - - - - - - -
21/07:30am 17.3 ENE 17 20 1019.6 - 0.0 - - - - - - -
21/07:00am 16.8 ENE 18 22 1019.2 - 0.0 - - - - - - -
21/06:30am 17.1 ENE 17 20 1019.2 - 0.0 - - - - - - -
21/06:00am 17.3 NE 13 18 1019.2 - 0.0 - - - - - - -
21/05:30am 16.8 N 8 11 1019.1 - 0.0 - - - - - - -
21/05:00am 17.2 ENE 16 19 1018.9 - 0.0 - - - - - - -
21/04:30am 16.9 ENE 13 16 1018.9 - 0.0 - - - - - - -
21/04:00am 16.9 ENE 14 17 1019.0 - 0.0 - - - - - - -
21/03:30am 16.3 NE 6 10 1019.3 - 0.0 - - - - - - -
21/03:00am 16.2 ENE 9 12 1019.7 - 0.0 - - - - - - -
21/02:30am 16.1 E 9 11 1020.1 - 0.0 - - - - - - -
21/02:00am 16.2 E 9 11 1020.5 - 0.0 - - - - - - -
21/01:30am 16.2 E 7 10 1020.8 - 0.0 - - - - - - -
21/01:00am 16.3 E 6 8 1021.3 - 0.0 - - - - - - -
21/12:30am 16.1 ENE 7 10 1021.5 - 0.0 - - - - - - -
21/12:00am 16.0 ENE 7 9 1021.9 - 0.0 - - - - - - -
 
Date/Time
CDT
Temp

°C
Wind Pressure Rain
since 9am
mm
Weather Cloud Vis
km
Sea
Height
m
Swell
Dir
 
Speed
knots
Gust
knots
hPa Trend Height
m
Period
s
Dir
20/11:30pm 15.7 NE 7 9 1022.2 - 0.0 - - - - - - -
20/11:00pm 15.6 NE 6 8 1022.6 - 0.0 - - - - - - -
20/10:30pm 15.6 NE 6 7 1022.8 - 0.0 - - - - - - -
20/10:00pm 15.5 ENE 6 7 1022.9 - 0.0 - - - - - - -
20/09:30pm 15.4 ENE 5 7 1022.9 - 0.0 - - - - - - -
20/09:00pm 15.3 NNE 5 6 1023.0 - 0.0 - - - - - - -
20/08:30pm 15.4 ENE 5 7 1022.9 - 0.0 - - - - - - -
20/08:00pm 15.4 E 6 8 1022.6 - 0.0 - - - - - - -
20/07:30pm 15.5 E 6 8 1022.4 - 0.0 - - - - - - -
20/07:00pm 15.6 E 7 9 1022.4 - 0.0 - - - - - - -
20/06:30pm 15.7 ESE 8 11 1022.2 - 0.0 - - - - - - -
20/06:00pm 16.0 ESE 11 14 1022.2 - 0.0 - - - - - - -
20/05:30pm 16.0 ESE 12 16 1022.4 - 0.0 - - - - - - -
20/05:00pm 15.6 ESE 15 18 1022.4 - 0.0 - - - - - - -
20/04:30pm 15.6 SE 15 17 1022.7 - 0.0 - - - - - - -
20/04:00pm 15.4 SE 17 21 1023.0 - 0.0 - - - - - - -
20/03:30pm 15.9 SE 16 20 1023.3 - 0.0 - - - - - - -
20/03:00pm 15.8 SE 16 19 1023.7 - 0.0 - - - - - - -
20/02:30pm 15.6 ESE 15 18 1024.3 - 0.0 - - - - - - -
20/02:00pm 15.8 ESE 13 17 1024.7 - 0.0 - - - - - - -
20/01:30pm 15.0 ESE 13 17 1025.1 - 0.0 - - - - - - -
20/01:00pm 14.9 ESE 15 19 1025.3 - 0.0 - - - - - - -
20/12:30pm 14.7 E 16 19 1025.7 - 0.0 - - - - - - -
20/12:00pm 14.6 E 17 21 1025.9 - 0.0 - - - - - - -
20/11:30am 14.4 E 18 21 1026.3 - 0.0 - - - - - - -
20/11:00am 14.6 E 18 22 1026.8 - 0.0 - - - - - - -
20/10:30am 14.3 E 17 22 1027.0 - 0.0 - - - - - - -
20/10:00am 14.1 E 20 25 1026.9 - 0.0 - - - - - - -
20/09:30am 13.9 E 21 26 1026.9 - 0.0 - - - - - - -
20/09:00am 13.5 E 21 26 1027.0 - 0.0 - - - - - - -
20/08:30am 13.2 E 22 26 1027.0 - 0.0 - - - - - - -
20/08:00am 13.0 E 23 27 1026.8 - 0.0 - - - - - - -
20/07:30am 13.0 E 21 26 1026.5 - 0.0 - - - - - - -
20/07:00am 13.0 E 22 26 1026.5 - 0.0 - - - - - - -
20/06:30am 13.0 E 23 29 1025.9 - 0.0 - - - - - - -
20/06:00am 13.0 E 22 26 1025.5 - 0.0 - - - - - - -
20/05:30am 13.1 E 22 26 1025.4 - 0.0 - - - - - - -
20/05:00am 13.3 E 23 28 1025.3 - 0.0 - - - - - - -
20/04:30am 13.3 ESE 21 27 1025.2 - 0.0 - - - - - - -
20/04:00am 13.4 ESE 22 27 1025.2 - 0.0 - - - - - - -
20/03:30am 13.6 ESE 22 27 1025.3 - 0.0 - - - - - - -
20/03:00am 13.4 ESE 24 30 1025.3 - 0.0 - - - - - - -
20/02:30am 13.6 ESE 23 29 1025.4 - 0.0 - - - - - - -
20/02:00am 13.8 ESE 23 28 1025.4 - 0.0 - - - - - - -
20/01:30am 13.9 ESE 23 29 1025.4 - 0.0 - - - - - - -
20/01:00am 13.9 ESE 22 28 1025.6 - 0.0 - - - - - - -
20/12:30am 14.0 ESE 23 28 1025.6 - 0.0 - - - - - - -
20/12:00am 14.1 ESE 23 27 1025.9 - 0.0 - - - - - - -
 
Date/Time
CDT
Temp

°C
Wind Pressure Rain
since 9am
mm
Weather Cloud Vis
km
Sea
Height
m
Swell
Dir
 
Speed
knots
Gust
knots
hPa Trend Height
m
Period
s
Dir
19/11:30pm 14.1 SE 24 29 1025.8 - 0.0 - - - - - - -
19/11:00pm 14.2 SE 25 29 1025.8 - 0.0 - - - - - - -
19/10:30pm 13.9 SE 25 28 1025.9 - 0.0 - - - - - - -
19/10:00pm 14.2 SE 24 29 1025.8 - 0.0 - - - - - - -
19/09:30pm 14.2 SE 24 29 1025.8 - 0.0 - - - - - - -
19/09:00pm 14.5 SE 21 26 1025.9 - 0.0 - - - - - - -
19/08:30pm 14.4 SE 21 25 1025.3 - 0.0 - - - - - - -
19/08:00pm 14.4 SE 23 27 1024.9 - 0.0 - - - - - - -
19/07:30pm 14.5 SE 21 26 1024.9 - 0.0 - - - - - - -
19/07:00pm 14.7 SE 20 24 1024.6 - 0.0 - - - - - - -
19/06:30pm 14.8 ESE 17 20 1024.0 - 0.0 - - - - - - -
19/06:00pm 15.1 SE 18 20 1023.9 - 0.0 - - - - - - -
19/05:30pm 15.4 SE 17 20 1023.7 - 0.0 - - - - - - -
19/05:00pm 15.1 SSE 20 25 1023.7 - 0.0 - - - - - - -
19/04:30pm 15.0 SSE 21 25 1023.3 - 0.0 - - - - - - -
19/04:00pm 15.3 SSE 18 23 1023.2 - 0.0 - - - - - - -
19/03:30pm 15.3 SSE 17 22 1022.9 - 0.0 - - - - - - -
19/03:00pm 15.4 SSE 16 20 1022.7 - 0.0 - - - - - - -
19/02:30pm 15.4 SSE 15 18 1022.5 - 0.0 - - - - - - -
19/02:00pm 15.6 SSE 13 16 1022.3 - 0.0 - - - - - - -
19/01:30pm 16.0 SSE 11 14 1022.0 - 0.0 - - - - - - -
19/01:00pm 15.6 S 13 17 1022.0 - 0.0 - - - - - - -
19/12:30pm 15.3 S 17 21 1021.9 - 0.0 - - - - - - -
19/12:00pm 15.7 S 17 21 1021.7 - 0.0 - - - - - - -
19/11:30am 16.8 S 12 17 1021.5 - 0.0 - - - - - - -
19/11:00am 17.8 SSW 10 15 1021.2 - 0.0 - - - - - - -
19/10:58am 17.9 SSW 11 16 1021.2 - 0.0 - - - - - - -
19/10:30am 22.9 NNW 12 14 1020.1 - 0.0 - - - - - - -
19/10:00am 21.0 NNW 11 15 1019.8 - 0.0 - - - - - - -
19/09:30am 17.1 S 2 3 1019.9 - 0.0 - - - - - - -
19/09:00am 17.2 SW 3 6 1019.9 - 0.0 - - - - - - -
19/08:30am 16.3 WSW 6 10 1019.8 - 0.0 - - - - - - -
19/08:00am 17.9 NNW 10 13 1019.4 - 0.0 - - - - - - -
19/07:30am 16.9 NW 7 10 1019.2 - 0.0 - - - - - - -
19/07:00am 15.6 SSW 4 6 1018.6 - 0.0 - - - - - - -

Other Formats:

Comma delimited format used in spreadsheet applications
http://www.bom.gov.au/fwo/IDS60701/IDS60701.94822.axf

JavaScript Object Notation format (JSON) in row-major order
http://www.bom.gov.au/fwo/IDS60701/IDS60701.94822.json